Terminal Aerodrome Forecast
Issued by NWS

Home | Current Version | Previous Version | Text Only | Print | Product List | Glossary On
Versions: 1 2 3 4 5 6 7 8 9 10 11 12 13 14 15 16
000
FTUS42 KFFC 240548
TAFFTY
TAF
KFTY 240548Z 2406/2506 04007KT 5SM BR VCSH OVC008
     FM240800 VRB03KT 4SM BR BKN005
      TEMPO 2410/2412 1/2SM FG OVC004
     FM241400 26006KT 6SM BR OVC012
     FM241800 27010KT P6SM BKN035 PROB30 2419/2423 P6SM -SHRA
      OVC035=

USA.gov is the U.S. government's official web portal to all federal, state and local government web resources and services.